createdAt,value
2024-05-09T00:00:39.058Z,476.00
2024-05-09T00:01:33.764Z,449.00
2024-05-09T00:02:32.702Z,467.00
2024-05-09T00:03:32.768Z,470.00
2024-05-09T00:04:32.759Z,470.00
2024-05-09T00:05:32.840Z,469.00
2024-05-09T00:06:32.714Z,468.00
2024-05-09T00:07:32.748Z,472.00
2024-05-09T00:08:32.744Z,471.00
2024-05-09T00:09:32.720Z,465.00
2024-05-09T00:10:37.194Z,464.00
2024-05-09T00:11:33.833Z,468.00
2024-05-09T00:12:32.775Z,473.00
2024-05-09T00:13:32.767Z,467.00
2024-05-09T00:14:32.853Z,470.00
2024-05-09T00:15:32.768Z,471.00
2024-05-09T00:16:32.770Z,473.00
2024-05-09T00:17:32.961Z,472.00
2024-05-09T00:18:32.915Z,445.00
2024-05-09T00:19:32.888Z,454.00
2024-05-09T00:20:38.042Z,459.00
2024-05-09T00:21:33.790Z,461.00
2024-05-09T00:22:32.807Z,463.00
2024-05-09T00:23:33.019Z,468.00
2024-05-09T00:24:32.789Z,464.00
2024-05-09T00:25:32.792Z,463.00
2024-05-09T00:26:32.875Z,451.00
2024-05-09T00:27:32.801Z,447.00
2024-05-09T00:28:32.790Z,456.00
2024-05-09T00:29:32.955Z,450.00
2024-05-09T00:30:35.488Z,463.00
2024-05-09T00:31:32.791Z,459.00
2024-05-09T00:32:33.063Z,460.00
2024-05-09T00:33:32.907Z,443.00
2024-05-09T00:34:32.822Z,452.00
2024-05-09T00:35:32.953Z,457.00
2024-05-09T00:36:32.833Z,457.00
2024-05-09T00:37:32.820Z,456.00
2024-05-09T00:38:32.905Z,446.00
2024-05-09T00:39:32.823Z,451.00
2024-05-09T00:40:38.926Z,452.00
2024-05-09T00:41:33.927Z,455.00
2024-05-09T00:42:32.830Z,452.00
2024-05-09T00:43:32.905Z,450.00
2024-05-09T00:44:32.857Z,449.00
2024-05-09T00:45:32.835Z,450.00
2024-05-09T00:46:32.825Z,455.00
2024-05-09T00:47:32.999Z,460.00
2024-05-09T00:48:32.981Z,457.00
2024-05-09T00:49:32.951Z,457.00
2024-05-09T00:50:36.492Z,458.00
2024-05-09T00:51:32.836Z,447.00
2024-05-09T00:52:32.830Z,453.00
2024-05-09T00:53:32.908Z,458.00
2024-05-09T00:54:32.830Z,458.00
2024-05-09T00:55:32.850Z,458.00
2024-05-09T00:56:32.859Z,457.00
2024-05-09T00:57:32.847Z,457.00
2024-05-09T00:58:32.858Z,459.00
2024-05-09T00:59:32.868Z,461.00
2024-05-09T01:00:38.693Z,459.00
2024-05-09T01:01:33.973Z,457.00
2024-05-09T01:02:32.961Z,452.00
2024-05-09T01:03:33.067Z,460.00
2024-05-09T01:04:32.860Z,441.00
2024-05-09T01:05:32.937Z,459.00
2024-05-09T01:06:32.850Z,452.00
2024-05-09T01:07:32.848Z,453.00
2024-05-09T01:08:32.911Z,457.00
2024-05-09T01:09:32.833Z,471.00
2024-05-09T01:10:35.111Z,442.00
2024-05-09T01:11:32.968Z,455.00
2024-05-09T01:12:32.913Z,458.00
2024-05-09T01:13:32.849Z,478.00
2024-05-09T01:14:32.866Z,457.00
2024-05-09T01:15:32.867Z,470.00
2024-05-09T01:16:32.842Z,457.00
2024-05-09T01:17:32.924Z,458.00
2024-05-09T01:18:32.914Z,464.00
2024-05-09T01:19:33.021Z,482.00
2024-05-09T01:20:40.916Z,462.00
2024-05-09T01:21:33.870Z,467.00
2024-05-09T01:22:32.847Z,471.00
2024-05-09T01:23:32.928Z,471.00
2024-05-09T01:24:32.848Z,471.00
2024-05-09T01:25:32.857Z,470.00
2024-05-09T01:26:32.925Z,471.00
2024-05-09T01:27:32.863Z,464.00
2024-05-09T01:28:32.892Z,465.00
2024-05-09T01:29:32.861Z,466.00
2024-05-09T01:30:35.804Z,468.00
2024-05-09T01:31:32.899Z,464.00
2024-05-09T01:32:32.974Z,462.00
2024-05-09T01:33:33.398Z,460.00
2024-05-09T01:34:32.875Z,462.00
2024-05-09T01:35:32.899Z,459.00
2024-05-09T01:36:32.875Z,461.00
2024-05-09T01:37:32.910Z,471.00
2024-05-09T01:38:33.076Z,462.00
2024-05-09T01:39:32.881Z,461.00
2024-05-09T01:40:37.560Z,458.00
2024-05-09T01:41:33.982Z,462.00
2024-05-09T01:42:32.878Z,463.00
2024-05-09T01:43:32.881Z,461.00
2024-05-09T01:44:32.941Z,465.00
2024-05-09T01:45:33.052Z,463.00
2024-05-09T01:46:32.932Z,463.00
2024-05-09T01:47:33.122Z,464.00
2024-05-09T01:48:32.943Z,466.00
2024-05-09T01:49:32.931Z,466.00
2024-05-09T01:50:38.981Z,465.00
2024-05-09T01:51:33.916Z,467.00
2024-05-09T01:52:32.930Z,464.00
2024-05-09T01:53:33.014Z,464.00
2024-05-09T01:54:32.935Z,465.00
2024-05-09T01:55:32.915Z,467.00
2024-05-09T01:56:33.079Z,461.00
2024-05-09T01:57:32.924Z,467.00
2024-05-09T01:58:32.970Z,468.00
2024-05-09T01:59:33.094Z,465.00
2024-05-09T02:00:38.996Z,467.00
2024-05-09T02:01:55.483Z,442.00
2024-05-09T02:02:34.019Z,453.00
2024-05-09T02:03:33.045Z,455.00
2024-05-09T02:04:32.967Z,463.00
2024-05-09T02:05:32.986Z,461.00
2024-05-09T02:06:32.952Z,463.00
2024-05-09T02:07:33.239Z,464.00
2024-05-09T02:08:33.122Z,464.00
2024-05-09T02:09:32.925Z,450.00
2024-05-09T02:10:33.561Z,464.00
2024-05-09T02:11:32.996Z,472.00
2024-05-09T02:12:33.101Z,476.00
2024-05-09T02:13:32.978Z,468.00
2024-05-09T02:14:32.963Z,466.00
2024-05-09T02:15:32.937Z,470.00
2024-05-09T02:16:32.954Z,454.00
2024-05-09T02:17:33.058Z,465.00
2024-05-09T02:18:33.055Z,465.00
2024-05-09T02:19:33.257Z,466.00
2024-05-09T02:20:36.367Z,469.00
2024-05-09T02:21:32.984Z,461.00
2024-05-09T02:22:32.993Z,464.00
2024-05-09T02:23:33.061Z,463.00
2024-05-09T02:24:32.979Z,468.00
2024-05-09T02:25:33.144Z,469.00
2024-05-09T02:26:32.991Z,472.00
2024-05-09T02:27:32.964Z,471.00
2024-05-09T02:28:32.959Z,472.00
2024-05-09T02:29:33.082Z,470.00
2024-05-09T02:30:39.103Z,471.00
2024-05-09T02:31:33.997Z,463.00
2024-05-09T02:32:33.162Z,464.00
2024-05-09T02:33:33.394Z,469.00
2024-05-09T02:34:33.076Z,469.00
2024-05-09T02:35:33.071Z,470.00
2024-05-09T02:36:32.994Z,468.00
2024-05-09T02:37:32.992Z,471.00
2024-05-09T02:38:33.098Z,472.00
2024-05-09T02:39:32.999Z,470.00
2024-05-09T02:40:37.194Z,469.00
2024-05-09T02:41:34.013Z,469.00
2024-05-09T02:42:33.005Z,468.00
2024-05-09T02:43:33.018Z,472.00
2024-05-09T02:44:33.029Z,472.00
2024-05-09T02:45:33.188Z,471.00
2024-05-09T02:46:33.028Z,470.00
2024-05-09T02:47:33.177Z,471.00
2024-05-09T02:48:33.193Z,465.00
2024-05-09T02:49:33.090Z,466.00
2024-05-09T02:50:38.068Z,470.00
2024-05-09T02:51:34.042Z,454.00
2024-05-09T02:52:33.031Z,460.00
2024-05-09T02:53:33.073Z,465.00
2024-05-09T02:54:33.028Z,464.00
2024-05-09T02:55:33.235Z,458.00
2024-05-09T02:56:33.096Z,455.00
2024-05-09T02:57:33.037Z,463.00
2024-05-09T02:58:33.015Z,463.00
2024-05-09T02:59:33.061Z,461.00
2024-05-09T03:00:38.966Z,453.00
2024-05-09T03:01:34.129Z,457.00
2024-05-09T03:02:33.205Z,458.00
2024-05-09T03:03:33.288Z,464.00
2024-05-09T03:04:33.160Z,462.00
2024-05-09T03:05:33.266Z,466.00
2024-05-09T03:06:33.051Z,468.00
2024-05-09T03:07:33.041Z,467.00
2024-05-09T03:08:33.143Z,473.00
2024-05-09T03:09:33.058Z,475.00
2024-05-09T03:10:36.380Z,471.00
2024-05-09T03:11:34.162Z,470.00
2024-05-09T03:12:34.065Z,469.00
2024-05-09T03:13:33.052Z,471.00
2024-05-09T03:14:33.106Z,468.00
2024-05-09T03:15:33.292Z,472.00
2024-05-09T03:16:33.085Z,468.00
2024-05-09T03:17:33.323Z,473.00
2024-05-09T03:18:33.159Z,468.00
2024-05-09T03:19:33.202Z,475.00
2024-05-09T03:20:35.415Z,475.00
2024-05-09T03:21:33.107Z,475.00
2024-05-09T03:22:33.092Z,473.00
2024-05-09T03:23:33.117Z,472.00
2024-05-09T03:24:33.104Z,472.00
2024-05-09T03:25:33.116Z,475.00
2024-05-09T03:26:33.116Z,474.00
2024-05-09T03:27:33.106Z,475.00
2024-05-09T03:28:33.116Z,471.00
2024-05-09T03:29:33.167Z,471.00
2024-05-09T03:30:40.511Z,474.00
2024-05-09T03:31:34.107Z,474.00
2024-05-09T03:32:33.256Z,477.00
2024-05-09T03:33:33.332Z,474.00
2024-05-09T03:34:33.127Z,475.00
2024-05-09T03:35:33.155Z,473.00
2024-05-09T03:36:33.108Z,473.00
2024-05-09T03:37:33.162Z,473.00
2024-05-09T03:38:33.228Z,472.00
2024-05-09T03:39:33.127Z,470.00
2024-05-09T03:40:33.130Z,472.00
2024-05-09T03:41:33.299Z,474.00
2024-05-09T03:42:33.140Z,470.00
2024-05-09T03:43:33.120Z,470.00
2024-05-09T03:44:33.233Z,468.00
2024-05-09T03:45:33.210Z,468.00
2024-05-09T03:46:33.225Z,475.00
2024-05-09T03:47:33.411Z,460.00
2024-05-09T03:48:33.350Z,461.00
2024-05-09T03:49:33.423Z,464.00
2024-05-09T03:50:35.642Z,466.00
2024-05-09T03:51:33.312Z,472.00
2024-05-09T03:52:33.349Z,465.00
2024-05-09T03:53:33.501Z,479.00
2024-05-09T03:54:33.349Z,455.00
2024-05-09T03:55:33.346Z,464.00
2024-05-09T03:56:33.352Z,465.00
2024-05-09T03:57:33.353Z,477.00
2024-05-09T03:58:33.334Z,473.00
2024-05-09T03:59:33.395Z,472.00
2024-05-09T04:00:38.104Z,470.00
2024-05-09T04:01:34.424Z,470.00
2024-05-09T04:02:33.437Z,467.00
2024-05-09T04:03:33.525Z,464.00
2024-05-09T04:04:33.451Z,471.00
2024-05-09T04:05:33.487Z,470.00
2024-05-09T04:06:33.362Z,466.00
2024-05-09T04:07:33.375Z,471.00
2024-05-09T04:08:33.510Z,469.00
2024-05-09T04:09:33.377Z,474.00
2024-05-09T04:10:34.911Z,477.00
2024-05-09T04:11:33.481Z,470.00
2024-05-09T04:12:33.451Z,468.00
2024-05-09T04:13:33.361Z,468.00
2024-05-09T04:14:33.428Z,469.00
2024-05-09T04:15:33.439Z,469.00
2024-05-09T04:16:33.369Z,472.00
2024-05-09T04:17:33.548Z,458.00
2024-05-09T04:18:33.660Z,459.00
2024-05-09T04:19:33.658Z,451.00
2024-05-09T04:20:38.677Z,462.00
2024-05-09T04:21:34.600Z,469.00
2024-05-09T04:22:33.604Z,461.00
2024-05-09T04:23:33.806Z,470.00
2024-05-09T04:24:33.604Z,458.00
2024-05-09T04:25:33.654Z,462.00
2024-05-09T04:26:33.689Z,457.00
2024-05-09T04:27:33.619Z,459.00
2024-05-09T04:28:33.622Z,459.00
2024-05-09T04:29:33.693Z,462.00
2024-05-09T04:30:38.278Z,461.00
2024-05-09T04:31:34.626Z,462.00
2024-05-09T04:32:33.732Z,461.00
2024-05-09T04:33:33.825Z,463.00
2024-05-09T04:34:33.793Z,463.00
2024-05-09T04:35:33.685Z,460.00
2024-05-09T04:36:33.638Z,461.00
2024-05-09T04:37:33.652Z,465.00
2024-05-09T04:38:33.789Z,467.00
2024-05-09T04:39:41.327Z,459.00
2024-05-09T04:40:41.376Z,466.00
2024-05-09T04:41:41.494Z,473.00
2024-05-09T04:42:41.514Z,473.00
2024-05-09T04:43:41.569Z,467.00
2024-05-09T04:44:41.603Z,466.00
2024-05-09T04:45:41.683Z,470.00
2024-05-09T04:46:41.738Z,472.00
2024-05-09T04:47:41.967Z,473.00
2024-05-09T04:48:41.975Z,469.00
2024-05-09T04:49:41.909Z,461.00
2024-05-09T04:50:42.024Z,465.00
2024-05-09T04:51:42.005Z,462.00
2024-05-09T04:52:42.057Z,471.00
2024-05-09T04:53:42.126Z,472.00
2024-05-09T04:54:42.158Z,459.00
2024-05-09T04:55:42.221Z,465.00
2024-05-09T04:56:42.339Z,473.00
2024-05-09T04:57:42.366Z,472.00
2024-05-09T04:58:42.432Z,473.00
2024-05-09T04:59:42.437Z,476.00
2024-05-09T05:00:42.604Z,476.00
2024-05-09T05:01:42.590Z,476.00
2024-05-09T05:02:42.766Z,479.00
2024-05-09T05:03:42.911Z,478.00
2024-05-09T05:04:42.878Z,474.00
2024-05-09T05:05:43.413Z,478.00
2024-05-09T05:06:42.858Z,476.00
2024-05-09T05:07:42.899Z,481.00
2024-05-09T05:08:43.005Z,478.00
2024-05-09T05:09:42.996Z,477.00
2024-05-09T05:10:43.084Z,477.00
2024-05-09T05:11:43.170Z,477.00
2024-05-09T05:12:43.111Z,477.00
2024-05-09T05:13:43.182Z,479.00
2024-05-09T05:14:43.205Z,480.00
2024-05-09T05:15:43.252Z,477.00
2024-05-09T05:16:43.285Z,477.00
2024-05-09T05:17:43.596Z,476.00
2024-05-09T05:18:43.457Z,474.00
2024-05-09T05:19:43.603Z,474.00
2024-05-09T05:20:43.632Z,473.00
2024-05-09T05:21:43.567Z,476.00
2024-05-09T05:22:43.599Z,476.00
2024-05-09T05:23:43.659Z,474.00
2024-05-09T05:24:43.633Z,473.00
2024-05-09T05:25:43.730Z,472.00
2024-05-09T05:26:43.713Z,473.00
2024-05-09T05:27:43.703Z,472.00
2024-05-09T05:28:43.714Z,472.00
2024-05-09T05:29:43.839Z,472.00
2024-05-09T05:30:43.850Z,471.00
2024-05-09T05:31:43.932Z,471.00
2024-05-09T05:32:44.088Z,471.00
2024-05-09T05:33:44.063Z,472.00
2024-05-09T05:34:44.043Z,471.00
2024-05-09T05:35:44.112Z,470.00
2024-05-09T05:36:44.081Z,471.00
2024-05-09T05:37:44.157Z,476.00
2024-05-09T05:38:44.306Z,476.00
2024-05-09T05:39:44.172Z,493.00
2024-05-09T05:40:44.335Z,472.00
2024-05-09T05:41:44.287Z,473.00
2024-05-09T05:42:44.300Z,476.00
2024-05-09T05:43:44.449Z,477.00
2024-05-09T05:44:44.354Z,477.00
2024-05-09T05:45:44.442Z,473.00
2024-05-09T05:46:44.509Z,469.00
2024-05-09T05:47:44.780Z,471.00
2024-05-09T05:48:44.599Z,473.00
2024-05-09T05:49:44.514Z,475.00
2024-05-09T05:50:44.676Z,473.00
2024-05-09T05:51:44.625Z,472.00
2024-05-09T05:52:44.762Z,471.00
2024-05-09T05:53:44.774Z,472.00
2024-05-09T05:54:44.727Z,472.00
2024-05-09T05:55:44.836Z,473.00
2024-05-09T05:56:44.912Z,474.00
2024-05-09T05:57:44.906Z,472.00
2024-05-09T05:58:45.145Z,473.00
2024-05-09T05:59:45.061Z,473.00
2024-05-09T06:00:45.218Z,471.00
2024-05-09T06:01:45.159Z,474.00
2024-05-09T06:02:45.327Z,473.00
2024-05-09T06:03:45.304Z,472.00
2024-05-09T06:04:45.366Z,473.00
2024-05-09T06:05:45.270Z,468.00
2024-05-09T06:06:45.332Z,468.00
2024-05-09T06:07:45.403Z,469.00
2024-05-09T06:08:45.510Z,468.00
2024-05-09T06:09:47.611Z,469.00
2024-05-09T06:10:45.514Z,467.00
2024-05-09T06:11:45.603Z,466.00
2024-05-09T06:12:45.447Z,463.00
2024-05-09T06:13:45.506Z,461.00
2024-05-09T06:14:45.419Z,463.00
2024-05-09T06:15:45.431Z,463.00
2024-05-09T06:16:45.465Z,463.00
2024-05-09T06:17:45.743Z,461.00
2024-05-09T06:18:45.563Z,455.00
2024-05-09T06:19:45.587Z,459.00
2024-05-09T06:20:45.486Z,456.00
2024-05-09T06:21:45.453Z,454.00
2024-05-09T06:22:45.441Z,456.00
2024-05-09T06:23:45.494Z,455.00
2024-05-09T06:24:45.449Z,455.00
2024-05-09T06:25:45.471Z,457.00
2024-05-09T06:26:45.440Z,457.00
2024-05-09T06:27:45.530Z,455.00
2024-05-09T06:28:45.499Z,459.00
2024-05-09T06:29:45.448Z,460.00
2024-05-09T06:30:45.493Z,459.00
2024-05-09T06:31:45.530Z,459.00
2024-05-09T06:32:45.567Z,456.00
2024-05-09T06:33:45.585Z,457.00
2024-05-09T06:34:45.628Z,456.00
2024-05-09T06:35:45.542Z,456.00
2024-05-09T06:36:45.463Z,456.00
2024-05-09T06:37:45.486Z,457.00
2024-05-09T06:38:45.539Z,456.00
2024-05-09T06:39:45.471Z,455.00
2024-05-09T06:40:45.786Z,456.00
2024-05-09T06:41:45.463Z,456.00
2024-05-09T06:42:45.474Z,456.00
2024-05-09T06:43:45.540Z,456.00
2024-05-09T06:44:45.525Z,454.00
2024-05-09T06:45:45.486Z,453.00
2024-05-09T06:46:45.714Z,452.00
2024-05-09T06:47:45.568Z,452.00
2024-05-09T06:48:45.849Z,451.00
2024-05-09T06:49:45.547Z,450.00
2024-05-09T06:50:45.622Z,448.00
2024-05-09T06:51:45.484Z,424.00
2024-05-09T06:52:45.554Z,443.00
2024-05-09T06:53:45.613Z,440.00
2024-05-09T06:54:45.624Z,445.00
2024-05-09T06:55:45.729Z,448.00
2024-05-09T06:56:45.682Z,440.00
2024-05-09T06:57:45.688Z,447.00
2024-05-09T06:58:45.780Z,448.00
2024-05-09T06:59:45.774Z,452.00
2024-05-09T07:00:45.911Z,451.00
2024-05-09T07:01:45.938Z,448.00
2024-05-09T07:02:46.068Z,452.00
2024-05-09T07:03:46.085Z,453.00
2024-05-09T07:04:46.100Z,451.00
2024-05-09T07:05:47.084Z,451.00
2024-05-09T07:06:46.107Z,453.00
2024-05-09T07:07:46.264Z,457.00
2024-05-09T07:08:47.409Z,443.00
2024-05-09T07:09:46.304Z,448.00
2024-05-09T07:10:46.586Z,452.00
2024-05-09T07:11:46.518Z,454.00
2024-05-09T07:12:46.462Z,453.00
2024-05-09T07:13:46.527Z,453.00
2024-05-09T07:14:46.606Z,454.00
2024-05-09T07:15:46.542Z,454.00
2024-05-09T07:16:46.702Z,451.00
2024-05-09T07:17:46.821Z,453.00
2024-05-09T07:18:46.920Z,451.00
2024-05-09T07:19:46.856Z,454.00
2024-05-09T07:20:47.394Z,452.00
2024-05-09T07:21:46.886Z,452.00
2024-05-09T07:22:46.925Z,455.00
2024-05-09T07:23:47.551Z,455.00
2024-05-09T07:24:47.064Z,457.00
2024-05-09T07:25:47.332Z,466.00
2024-05-09T07:26:47.217Z,446.00
2024-05-09T07:27:47.236Z,451.00
2024-05-09T07:28:47.327Z,453.00
2024-05-09T07:29:47.406Z,453.00
2024-05-09T07:30:47.354Z,452.00
2024-05-09T07:31:47.409Z,450.00
2024-05-09T07:32:47.853Z,444.00
2024-05-09T07:33:47.522Z,449.00
2024-05-09T07:34:47.502Z,448.00
2024-05-09T07:35:47.590Z,454.00
2024-05-09T07:36:47.548Z,458.00
2024-05-09T07:37:47.621Z,452.00
2024-05-09T07:38:47.732Z,452.00
2024-05-09T07:39:47.688Z,453.00
2024-05-09T07:40:47.838Z,452.00
2024-05-09T07:41:47.810Z,453.00
2024-05-09T07:42:47.832Z,451.00
2024-05-09T07:43:47.891Z,454.00
2024-05-09T07:44:47.937Z,454.00
2024-05-09T07:45:53.093Z,453.00
2024-05-09T07:47:48.786Z,453.00
2024-05-09T07:49:13.626Z,454.00
2024-05-09T07:53:17.300Z,445.00
2024-05-09T07:53:34.820Z,443.00
2024-05-09T07:53:52.210Z,445.00
2024-05-09T07:54:49.276Z,444.00
2024-05-09T07:55:48.059Z,444.00
2024-05-09T07:56:48.079Z,449.00
2024-05-09T07:57:48.027Z,441.00
2024-05-09T07:58:47.975Z,442.00
2024-05-09T07:59:47.976Z,445.00
2024-05-09T08:00:48.176Z,445.00
2024-05-09T08:01:48.059Z,446.00
2024-05-09T08:02:48.048Z,445.00
2024-05-09T08:03:48.195Z,444.00
2024-05-09T08:04:48.164Z,444.00
2024-05-09T08:05:48.032Z,437.00
2024-05-09T08:06:48.068Z,439.00
2024-05-09T08:07:48.012Z,441.00
2024-05-09T08:08:47.987Z,440.00
2024-05-09T08:09:48.025Z,441.00
2024-05-09T08:10:48.066Z,442.00
2024-05-09T08:11:48.024Z,442.00
2024-05-09T08:12:48.037Z,442.00
2024-05-09T08:13:48.044Z,441.00
2024-05-09T08:14:47.995Z,435.00
2024-05-09T08:15:48.055Z,440.00
2024-05-09T08:16:48.044Z,439.00
2024-05-09T08:17:48.115Z,439.00
2024-05-09T08:18:48.094Z,438.00
2024-05-09T08:19:48.083Z,434.00
2024-05-09T08:20:48.012Z,433.00
2024-05-09T08:21:48.053Z,434.00
2024-05-09T08:22:48.037Z,436.00
2024-05-09T08:23:48.018Z,438.00
2024-05-09T08:24:48.059Z,438.00
2024-05-09T08:25:48.120Z,435.00
2024-05-09T08:26:48.146Z,436.00
2024-05-09T08:27:48.176Z,426.00
2024-05-09T08:28:48.186Z,429.00
2024-05-09T08:29:48.267Z,438.00
2024-05-09T08:30:48.563Z,429.00
2024-05-09T08:31:48.390Z,436.00
2024-05-09T08:32:48.541Z,416.00
2024-05-09T08:33:48.756Z,429.00
2024-05-09T08:34:48.425Z,430.00
2024-05-09T08:35:48.425Z,434.00
2024-05-09T08:36:48.502Z,433.00
2024-05-09T08:37:48.578Z,416.00
2024-05-09T08:38:48.545Z,426.00
2024-05-09T08:39:48.683Z,429.00
2024-05-09T08:40:48.776Z,434.00
2024-05-09T08:41:48.664Z,436.00
2024-05-09T08:42:48.792Z,436.00
2024-05-09T08:43:48.763Z,433.00
2024-05-09T08:44:48.846Z,431.00
2024-05-09T08:45:48.868Z,428.00
2024-05-09T08:46:48.880Z,433.00
2024-05-09T08:47:48.924Z,439.00
2024-05-09T08:48:49.063Z,429.00
2024-05-09T08:49:49.042Z,427.00
2024-05-09T08:50:49.164Z,428.00
2024-05-09T08:51:49.146Z,428.00
2024-05-09T08:52:49.192Z,421.00
2024-05-09T08:53:49.263Z,426.00
2024-05-09T08:54:49.338Z,428.00
2024-05-09T08:55:49.323Z,393.00
2024-05-09T08:56:49.376Z,409.00
2024-05-09T08:57:49.465Z,425.00
2024-05-09T08:58:49.571Z,427.00
2024-05-09T08:59:49.519Z,428.00
2024-05-09T09:00:49.996Z,428.00
2024-05-09T09:01:49.684Z,428.00
2024-05-09T09:02:49.754Z,427.00
2024-05-09T09:03:49.870Z,377.00
2024-05-09T09:04:50.136Z,419.00
2024-05-09T09:05:49.823Z,422.00
2024-05-09T09:06:49.896Z,423.00
2024-05-09T09:07:49.955Z,427.00
2024-05-09T09:08:49.948Z,406.00
2024-05-09T09:09:50.027Z,421.00
2024-05-09T09:10:50.092Z,433.00
2024-05-09T09:11:50.140Z,422.00
2024-05-09T09:12:50.197Z,435.00
2024-05-09T09:13:50.167Z,431.00
2024-05-09T09:14:50.174Z,431.00
2024-05-09T09:15:50.351Z,433.00
2024-05-09T09:16:50.273Z,433.00
2024-05-09T09:17:50.450Z,433.00
2024-05-09T09:18:50.588Z,432.00
2024-05-09T09:19:50.442Z,429.00
2024-05-09T09:20:50.497Z,430.00
2024-05-09T09:21:50.623Z,420.00
2024-05-09T09:22:50.567Z,415.00
2024-05-09T09:23:50.586Z,417.00
2024-05-09T09:24:50.653Z,378.00
2024-05-09T09:25:50.803Z,420.00
2024-05-09T09:26:50.721Z,425.00
2024-05-09T09:27:50.827Z,423.00
2024-05-09T09:28:50.855Z,426.00
2024-05-09T09:29:50.903Z,413.00
2024-05-09T09:30:51.080Z,419.00
2024-05-09T09:31:51.350Z,413.00
2024-05-09T09:32:51.073Z,406.00
2024-05-09T09:33:51.306Z,416.00
2024-05-09T09:34:51.127Z,416.00
2024-05-09T09:35:51.104Z,419.00
2024-05-09T09:36:51.226Z,405.00
2024-05-09T09:37:51.192Z,416.00
2024-05-09T09:38:51.263Z,416.00
2024-05-09T09:39:51.341Z,416.00
2024-05-09T09:40:51.485Z,423.00
2024-05-09T09:41:51.410Z,418.00
2024-05-09T09:42:51.564Z,419.00
2024-05-09T09:43:51.554Z,420.00
2024-05-09T09:45:01.824Z,420.00
2024-05-09T09:45:53.528Z,413.00
2024-05-09T09:46:51.635Z,400.00
2024-05-09T09:47:51.718Z,421.00
2024-05-09T09:48:51.788Z,430.00
2024-05-09T09:49:51.723Z,433.00
2024-05-09T09:50:51.740Z,439.00
2024-05-09T09:51:51.774Z,431.00
2024-05-09T09:52:51.734Z,434.00
2024-05-09T09:53:51.769Z,429.00
2024-05-09T09:54:51.938Z,428.00
2024-05-09T09:55:51.865Z,428.00
2024-05-09T09:56:51.946Z,431.00
2024-05-09T09:57:52.075Z,433.00
2024-05-09T09:58:52.008Z,433.00
2024-05-09T09:59:52.056Z,433.00
2024-05-09T10:00:52.212Z,429.00
2024-05-09T10:01:52.229Z,423.00
2024-05-09T10:02:52.249Z,418.00
2024-05-09T10:03:52.458Z,375.00
2024-05-09T10:04:52.412Z,405.00
2024-05-09T10:05:52.385Z,412.00
2024-05-09T10:06:52.368Z,417.00
2024-05-09T10:07:52.389Z,416.00
2024-05-09T10:08:52.446Z,414.00
2024-05-09T10:09:52.469Z,353.00
2024-05-09T10:10:52.778Z,395.00
2024-05-09T10:11:59.575Z,407.00
2024-05-09T10:12:53.603Z,334.00
2024-05-09T10:13:52.535Z,419.00
2024-05-09T10:14:52.564Z,402.00
2024-05-09T10:15:52.931Z,415.00
2024-05-09T10:16:52.560Z,410.00
2024-05-09T10:17:52.673Z,422.00
2024-05-09T10:18:52.825Z,415.00
2024-05-09T10:19:52.723Z,413.00
2024-05-09T10:20:52.558Z,415.00
2024-05-09T10:21:52.631Z,408.00
2024-05-09T10:22:52.540Z,409.00
2024-05-09T10:23:52.581Z,405.00
2024-05-09T10:24:52.627Z,407.00
2024-05-09T10:25:52.575Z,410.00
2024-05-09T10:26:52.554Z,416.00
2024-05-09T10:27:52.566Z,403.00
2024-05-09T10:28:52.591Z,414.00
2024-05-09T10:29:52.580Z,415.00
2024-05-09T10:30:52.639Z,413.00
2024-05-09T10:31:52.658Z,414.00
2024-05-09T10:32:52.753Z,410.00
2024-05-09T10:33:53.320Z,412.00
2024-05-09T10:34:52.758Z,413.00
2024-05-09T10:35:52.753Z,412.00
2024-05-09T10:36:52.884Z,405.00
2024-05-09T10:37:52.951Z,421.00
2024-05-09T10:38:52.979Z,412.00
2024-05-09T10:39:53.106Z,411.00
2024-05-09T10:40:53.076Z,403.00
2024-05-09T10:41:53.118Z,408.00
2024-05-09T10:42:53.186Z,409.00
2024-05-09T10:43:53.238Z,240.00
2024-05-09T10:44:53.264Z,402.00
2024-05-09T10:45:53.486Z,411.00
2024-05-09T10:46:53.425Z,409.00
2024-05-09T10:47:53.552Z,415.00
2024-05-09T10:48:53.666Z,410.00
2024-05-09T10:49:53.742Z,410.00
2024-05-09T10:50:53.632Z,410.00
2024-05-09T10:51:53.746Z,408.00
2024-05-09T10:52:53.744Z,408.00
2024-05-09T10:53:53.791Z,405.00
2024-05-09T10:54:53.850Z,411.00
2024-05-09T10:55:53.868Z,414.00
2024-05-09T10:56:53.901Z,397.00
2024-05-09T10:57:53.986Z,397.00
2024-05-09T10:58:53.942Z,415.00
2024-05-09T10:59:53.970Z,414.00
2024-05-09T11:00:54.163Z,418.00
2024-05-09T11:01:54.230Z,417.00
2024-05-09T11:02:54.188Z,407.00
2024-05-09T11:03:54.411Z,407.00
2024-05-09T11:04:54.283Z,410.00
2024-05-09T11:05:54.338Z,412.00
2024-05-09T11:06:54.376Z,400.00
2024-05-09T11:07:54.354Z,419.00
2024-05-09T11:08:54.388Z,391.00
2024-05-09T11:09:54.452Z,404.00
2024-05-09T11:10:54.546Z,407.00
2024-05-09T11:11:54.554Z,411.00
2024-05-09T11:12:54.533Z,406.00
2024-05-09T11:13:54.528Z,415.00
2024-05-09T11:14:54.546Z,412.00
2024-05-09T11:15:54.782Z,413.00
2024-05-09T11:16:54.604Z,416.00
2024-05-09T11:17:54.787Z,418.00
2024-05-09T11:18:55.110Z,412.00
2024-05-09T11:19:54.812Z,434.00
2024-05-09T11:20:54.787Z,405.00
2024-05-09T11:21:54.853Z,392.00
2024-05-09T11:23:11.903Z,421.00
2024-05-09T11:24:11.971Z,423.00
2024-05-09T11:25:12.013Z,422.00
2024-05-09T11:26:11.888Z,400.00
2024-05-09T11:27:11.947Z,420.00
2024-05-09T11:28:11.997Z,406.00
2024-05-09T11:29:12.244Z,425.00
2024-05-09T11:30:20.828Z,429.00
2024-05-09T11:31:12.951Z,428.00
2024-05-09T11:32:11.998Z,430.00
2024-05-09T11:33:11.982Z,429.00
2024-05-09T11:34:11.969Z,430.00
2024-05-09T11:35:11.915Z,427.00
2024-05-09T11:36:11.915Z,428.00
2024-05-09T11:37:12.041Z,432.00
2024-05-09T11:38:11.943Z,433.00
2024-05-09T11:39:11.953Z,433.00
2024-05-09T11:40:20.733Z,430.00
2024-05-09T11:41:12.950Z,433.00
2024-05-09T11:42:11.971Z,415.00
2024-05-09T11:43:12.132Z,419.00
2024-05-09T11:44:11.937Z,428.00
2024-05-09T11:45:11.956Z,433.00
2024-05-09T11:46:12.119Z,432.00
2024-05-09T11:47:12.006Z,401.00
2024-05-09T11:48:12.046Z,432.00
2024-05-09T11:49:12.195Z,426.00
2024-05-09T11:50:19.139Z,424.00
2024-05-09T11:51:12.974Z,429.00
2024-05-09T11:52:12.034Z,428.00
2024-05-09T11:53:11.979Z,432.00
2024-05-09T11:54:12.006Z,426.00
2024-05-09T11:55:12.014Z,435.00
2024-05-09T11:56:12.023Z,428.00
2024-05-09T11:57:11.980Z,428.00
2024-05-09T11:58:12.060Z,436.00
2024-05-09T11:59:11.993Z,402.00
2024-05-09T12:00:14.934Z,421.00
2024-05-09T12:01:13.075Z,408.00
2024-05-09T12:02:12.143Z,416.00
2024-05-09T12:03:12.038Z,428.00
2024-05-09T12:04:12.258Z,418.00
2024-05-09T12:05:12.122Z,434.00
2024-05-09T12:06:12.053Z,431.00
2024-05-09T12:07:13.130Z,431.00
2024-05-09T12:08:12.014Z,437.00
2024-05-09T12:09:12.004Z,433.00
2024-05-09T12:10:16.794Z,436.00
2024-05-09T12:11:13.142Z,439.00
2024-05-09T12:12:12.014Z,438.00
2024-05-09T12:13:12.057Z,432.00
2024-05-09T12:14:12.050Z,434.00
2024-05-09T12:15:12.036Z,430.00
2024-05-09T12:16:12.077Z,428.00
2024-05-09T12:17:12.085Z,428.00
2024-05-09T12:18:12.085Z,416.00
2024-05-09T12:19:12.104Z,404.00
2024-05-09T12:20:20.943Z,431.00
2024-05-09T12:21:13.037Z,436.00
2024-05-09T12:22:12.136Z,432.00
2024-05-09T12:23:12.099Z,434.00
2024-05-09T12:24:14.438Z,372.00
2024-05-09T12:25:12.094Z,426.00
2024-05-09T12:26:12.057Z,423.00
2024-05-09T12:27:12.104Z,438.00
2024-05-09T12:28:12.135Z,432.00
2024-05-09T12:29:12.066Z,433.00
2024-05-09T12:30:20.741Z,426.00
2024-05-09T12:31:13.090Z,419.00
2024-05-09T12:32:12.088Z,432.00